Time;durP1;ratioP1;P1;durP2;ratioP2;P2;SDS_P1;SDS_P2;PMS_P1;PMS_P2;Temp;Humidity;BMP_temperature;BMP_pressure;BME280_temperature;BME280_humidity;BME280_pressure;Samples;Min_cycle;Max_cycle;Signal;HPM_P1;HPM_P2
2021/09/29 00:01:19;;;;;;;6.50;2.92;;;15.40;99.90;;;;;;4148016;28;20071;-73
2021/09/29 00:03:20;;;;;;;6.30;2.70;;;15.40;99.90;;;;;;4152071;28;20110;-73
2021/09/29 00:05:20;;;;;;;7.38;2.90;;;15.40;99.90;;;;;;4156224;28;20041;-72
2021/09/29 00:07:21;;;;;;;6.00;3.10;;;15.30;99.90;;;;;;4170237;28;20068;-73
2021/09/29 00:09:21;;;;;;;5.93;2.95;;;15.30;99.90;;;;;;4173076;28;20040;-73
2021/09/29 00:11:22;;;;;;;8.55;3.60;;;15.30;99.90;;;;;;4172122;28;20061;-73
2021/09/29 00:13:25;;;;;;;6.70;3.08;;;15.30;99.90;;;;;;4171523;28;20117;-73
2021/09/29 00:15:25;;;;;;;;;;;15.30;99.90;;;;;;4168560;28;20033;-72
2021/09/29 00:17:26;;;;;;;8.65;3.00;;;15.30;99.90;;;;;;4173935;28;19966;-72
2021/09/29 00:19:27;;;;;;;6.97;3.38;;;15.30;99.90;;;;;;4170315;28;20547;-73
2021/09/29 00:21:27;;;;;;;7.82;4.13;;;15.30;99.90;;;;;;4174597;28;20048;-72
2021/09/29 00:23:28;;;;;;;8.73;3.72;;;15.30;99.90;;;;;;4169233;28;20112;-73
2021/09/29 00:25:28;;;;;;;9.10;4.35;;;15.30;99.90;;;;;;4170700;28;20154;-73
2021/09/29 00:27:29;;;;;;;9.77;4.57;;;15.20;99.90;;;;;;4169918;28;20029;-73
2021/09/29 00:29:30;;;;;;;11.90;4.47;;;15.20;99.90;;;;;;4163391;28;20083;-73
2021/09/29 00:31:38;;;;;;;15.23;4.80;;;15.20;99.90;;;;;;4171690;28;20140;-73
2021/09/29 00:33:46;;;;;;;10.98;4.07;;;15.20;99.90;;;;;;4170322;28;20037;-73
2021/09/29 00:35:47;;;;;;;8.98;4.00;;;15.10;99.90;;;;;;4165138;28;21421;-73
2021/09/29 00:37:48;;;;;;;11.45;4.65;;;15.10;99.90;;;;;;4172132;28;20095;-72
2021/09/29 00:39:48;;;;;;;8.02;4.10;;;15.10;99.90;;;;;;4169721;28;20096;-73
2021/09/29 00:41:49;;;;;;;8.55;4.22;;;15.10;99.90;;;;;;4170074;28;20040;-73
2021/09/29 00:43:49;;;;;;;7.28;4.18;;;15.20;99.90;;;;;;4170842;28;20052;-72
2021/09/29 00:45:50;;;;;;;12.95;4.47;;;15.10;99.90;;;;;;4172187;28;20036;-73
2021/09/29 00:47:51;;;;;;;10.50;4.55;;;15.20;99.90;;;;;;4165605;28;20071;-72
2021/09/29 00:49:51;;;;;;;11.40;4.65;;;15.10;99.90;;;;;;4167817;28;20045;-72
2021/09/29 00:51:52;;;;;;;8.50;4.55;;;15.10;99.90;;;;;;4171173;28;20036;-73
2021/09/29 00:53:53;;;;;;;12.27;5.50;;;15.10;99.90;;;;;;4172071;28;20114;-72
2021/09/29 00:55:55;;;;;;;9.77;4.97;;;15.00;99.90;;;;;;4168105;28;20037;-73
2021/09/29 00:57:55;;;;;;;8.67;4.70;;;15.00;99.90;;;;;;4167069;28;20033;-72
2021/09/29 00:59:56;;;;;;;8.45;4.43;;;14.90;99.90;;;;;;4170154;28;20102;-73
2021/09/29 01:01:57;;;;;;;10.93;4.60;;;14.90;99.90;;;;;;4172408;28;20084;-72
2021/09/29 01:04:00;;;;;;;10.93;5.28;;;14.90;99.90;;;;;;4169202;28;20483;-73
2021/09/29 01:06:05;;;;;;;11.60;5.40;;;14.80;99.90;;;;;;4182452;28;20124;-72
2021/09/29 01:08:13;;;;;;;11.80;4.70;;;14.80;99.90;;;;;;4178387;28;20040;-72
2021/09/29 01:10:41;;;;;;;14.32;5.20;;;14.80;99.90;;;;;;4166760;28;20044;-73
2021/09/29 01:13:03;;;;;;;7.35;3.67;;;14.80;99.90;;;;;;4170155;28;20033;-73
2021/09/29 01:15:13;;;;;;;8.73;4.10;;;14.80;99.90;;;;;;4171957;28;20040;-72
2021/09/29 01:17:18;;;;;;;12.77;4.50;;;14.80;99.90;;;;;;4176580;28;20650;-72
2021/09/29 01:19:43;;;;;;;9.15;3.80;;;14.70;99.90;;;;;;4168024;28;20091;-73
2021/09/29 01:21:50;;;;;;;8.75;3.33;;;14.70;99.90;;;;;;4170967;28;20033;-73
2021/09/29 01:24:02;;;;;;;8.38;3.33;;;14.70;99.90;;;;;;4173163;28;20496;-72
2021/09/29 01:26:08;;;;;;;9.02;3.13;;;14.70;99.90;;;;;;4174284;28;20069;-73
2021/09/29 01:28:10;;;;;;;7.63;2.80;;;14.70;99.90;;;;;;4173397;28;20041;-72
2021/09/29 01:30:11;;;;;;;6.05;2.42;;;14.70;99.90;;;;;;4171600;28;20036;-73
2021/09/29 01:32:12;;;;;;;6.57;2.92;;;14.70;99.90;;;;;;4175975;28;20041;-73
2021/09/29 01:34:15;;;;;;;6.15;2.88;;;14.70;99.90;;;;;;4174723;28;20122;-73
2021/09/29 01:36:20;;;;;;;7.53;2.72;;;14.70;99.90;;;;;;4175671;28;20036;-72
2021/09/29 01:38:22;;;;;;;6.43;2.30;;;14.70;99.90;;;;;;4175126;28;20068;-72
2021/09/29 01:40:23;;;;;;;7.45;2.75;;;14.70;99.90;;;;;;4173135;28;20049;-72
2021/09/29 01:42:24;;;;;;;9.75;2.80;;;14.70;99.90;;;;;;4178079;28;20036;-73
2021/09/29 01:44:26;;;;;;;9.65;2.75;;;14.60;99.90;;;;;;4176431;28;20552;-72
2021/09/29 01:46:29;;;;;;;10.75;3.38;;;14.60;99.90;;;;;;4168536;28;20571;-72
2021/09/29 01:48:29;;;;;;;12.35;3.08;;;14.50;99.90;;;;;;4173161;28;20037;-73
2021/09/29 01:50:31;;;;;;;7.72;2.80;;;14.50;99.90;;;;;;4171663;28;20037;-72
2021/09/29 01:52:36;;;;;;;6.07;2.70;;;14.40;99.90;;;;;;4173302;28;20106;-73
2021/09/29 01:54:42;;;;;;;10.20;2.90;;;14.40;99.90;;;;;;4173660;28;20057;-73
2021/09/29 01:56:44;;;;;;;6.32;2.50;;;14.30;99.90;;;;;;4172715;28;20048;-73
2021/09/29 01:58:45;;;;;;;6.57;2.58;;;14.30;99.90;;;;;;4168541;28;20040;-72
2021/09/29 02:00:45;;;;;;;5.45;2.38;;;14.40;99.90;;;;;;4173740;28;20047;-73
2021/09/29 02:02:46;;;;;;;7.82;2.65;;;14.40;99.90;;;;;;4168544;28;20044;-73
2021/09/29 02:04:49;;;;;;;7.68;2.65;;;14.30;99.90;;;;;;4167161;28;20413;-72
2021/09/29 02:06:55;;;;;;;7.25;2.58;;;14.40;99.90;;;;;;4165827;28;20052;-73
2021/09/29 02:08:56;;;;;;;8.52;2.90;;;14.40;99.90;;;;;;4152342;28;20041;-73
2021/09/29 02:10:57;;;;;;;8.07;2.80;;;14.40;99.90;;;;;;4153823;28;20124;-72
2021/09/29 02:12:57;;;;;;;7.18;2.63;;;14.40;99.90;;;;;;4154361;28;20095;-72
2021/09/29 02:14:58;;;;;;;8.23;2.55;;;14.40;99.90;;;;;;4150944;28;20049;-73
2021/09/29 02:16:59;;;;;;;6.60;2.40;;;14.40;99.90;;;;;;4150901;28;20045;-72
2021/09/29 02:19:00;;;;;;;8.88;3.30;;;14.40;99.90;;;;;;4152356;28;20061;-73
2021/09/29 02:21:00;;;;;;;6.50;2.65;;;14.40;99.90;;;;;;4152203;28;20052;-73
2021/09/29 02:23:01;;;;;;;5.82;2.60;;;14.40;99.90;;;;;;4151491;28;20072;-73
2021/09/29 02:25:02;;;;;;;6.22;2.78;;;14.50;99.90;;;;;;4154286;28;20497;-73
2021/09/29 02:27:03;;;;;;;12.15;3.00;;;14.50;99.90;;;;;;4152943;28;20025;-72
2021/09/29 02:29:05;;;;;;;8.52;3.45;;;14.40;99.90;;;;;;4152760;28;20041;-72
2021/09/29 02:31:05;;;;;;;6.50;2.90;;;14.50;99.90;;;;;;4152445;28;20049;-72
2021/09/29 02:33:06;;;;;;;5.03;2.42;;;14.40;99.90;;;;;;4149746;28;20041;-73
2021/09/29 02:35:08;;;;;;;6.32;3.28;;;14.40;99.90;;;;;;4153815;28;20121;-72
2021/09/29 02:37:09;;;;;;;7.18;3.20;;;14.40;99.90;;;;;;4150755;28;20037;-72
2021/09/29 02:39:10;;;;;;;6.28;2.95;;;14.40;99.90;;;;;;4150534;28;20569;-72
2021/09/29 02:41:12;;;;;;;6.07;2.70;;;14.40;99.90;;;;;;4154413;28;20405;-72
2021/09/29 02:43:12;;;;;;;5.93;2.73;;;14.40;99.90;;;;;;4152088;28;20049;-73
2021/09/29 02:45:13;;;;;;;8.77;3.33;;;14.40;99.90;;;;;;4153377;28;20044;-72
2021/09/29 02:47:13;;;;;;;8.88;3.67;;;14.30;99.90;;;;;;4151099;28;20589;-72
2021/09/29 02:49:14;;;;;;;12.82;4.05;;;14.30;99.90;;;;;;4151789;28;20045;-72
2021/09/29 02:51:15;;;;;;;8.80;3.70;;;14.30;99.90;;;;;;4151495;28;20044;-73
2021/09/29 02:53:15;;;;;;;10.32;3.78;;;14.30;99.90;;;;;;4150386;28;20507;-73
2021/09/29 02:55:16;;;;;;;8.75;3.42;;;14.30;99.90;;;;;;4153297;28;20049;-73
2021/09/29 02:57:16;;;;;;;7.22;3.83;;;14.30;99.90;;;;;;4152043;28;20049;-73
2021/09/29 02:59:17;;;;;;;11.07;4.28;;;14.30;99.90;;;;;;4153710;28;20517;-72
2021/09/29 03:01:18;;;;;;;11.80;5.35;;;14.30;99.90;;;;;;4151455;28;20624;-72
2021/09/29 03:03:20;;;;;;;10.50;4.47;;;14.30;99.90;;;;;;4154843;28;20049;-72
2021/09/29 03:05:21;;;;;;;9.48;4.43;;;14.20;99.90;;;;;;4154424;28;20057;-73
2021/09/29 03:07:21;;;;;;;8.02;3.95;;;14.20;99.90;;;;;;4154838;28;20038;-73
2021/09/29 03:09:22;;;;;;;10.48;4.22;;;14.20;99.90;;;;;;4154320;28;20152;-73
2021/09/29 03:11:22;;;;;;;10.50;4.30;;;14.30;99.90;;;;;;4155783;28;20038;-73
2021/09/29 03:13:23;;;;;;;11.07;3.97;;;14.30;99.90;;;;;;4157171;28;20112;-73
2021/09/29 03:15:24;;;;;;;8.90;3.97;;;14.30;99.90;;;;;;4152281;28;20029;-73
2021/09/29 03:17:24;;;;;;;8.40;4.00;;;14.20;99.90;;;;;;4154626;28;20048;-73
2021/09/29 03:19:26;;;;;;;7.22;3.88;;;14.30;99.90;;;;;;4156998;28;21200;-73
2021/09/29 03:21:27;;;;;;;9.85;4.32;;;14.30;99.90;;;;;;4173341;28;20033;-73
2021/09/29 03:23:28;;;;;;;9.60;4.20;;;14.30;99.90;;;;;;4172779;28;20491;-72
2021/09/29 03:25:28;;;;;;;13.65;4.75;;;14.30;99.90;;;;;;4173859;28;20029;-72
2021/09/29 03:27:29;;;;;;;9.35;4.38;;;14.20;99.90;;;;;;4171694;28;20043;-73
2021/09/29 03:29:29;;;;;;;12.68;4.97;;;14.10;99.90;;;;;;4170997;28;21543;-73
2021/09/29 03:31:30;;;;;;;13.20;4.50;;;14.10;99.90;;;;;;4169827;28;20749;-73
2021/09/29 03:33:31;;;;;;;8.90;4.95;;;14.10;99.90;;;;;;4172335;28;20436;-73
2021/09/29 03:35:32;;;;;;;8.35;4.60;;;14.00;99.90;;;;;;4170024;28;20037;-72
2021/09/29 03:37:32;;;;;;;10.68;4.53;;;14.00;99.90;;;;;;4172265;28;20033;-73
2021/09/29 03:39:33;;;;;;;9.43;4.72;;;14.00;99.90;;;;;;4170279;28;20041;-72
2021/09/29 03:41:34;;;;;;;14.50;5.28;;;14.00;99.90;;;;;;4172593;28;20509;-72
2021/09/29 03:43:35;;;;;;;8.68;4.10;;;13.90;99.90;;;;;;4170970;28;20100;-73
2021/09/29 03:45:35;;;;;;;8.02;4.07;;;13.90;99.90;;;;;;4172812;28;20034;-73
2021/09/29 03:47:36;;;;;;;12.25;4.82;;;13.90;99.90;;;;;;4171382;28;20056;-73
2021/09/29 03:49:37;;;;;;;8.73;3.83;;;13.80;99.90;;;;;;4173341;28;20110;-72
2021/09/29 03:51:37;;;;;;;11.82;4.38;;;13.90;99.90;;;;;;4169726;28;20147;-72
2021/09/29 03:53:38;;;;;;;8.88;4.70;;;13.90;99.90;;;;;;4169790;28;20033;-73
2021/09/29 03:55:39;;;;;;;10.18;4.60;;;13.90;99.90;;;;;;4173255;28;20040;-73
2021/09/29 03:57:39;;;;;;;9.35;4.10;;;13.90;99.90;;;;;;4172336;28;20500;-73
2021/09/29 03:59:40;;;;;;;7.85;4.30;;;13.90;99.90;;;;;;4170996;28;20104;-73
2021/09/29 04:01:42;;;;;;;12.05;5.13;;;13.90;99.90;;;;;;4171315;28;20488;-72
2021/09/29 04:03:43;;;;;;;12.77;4.97;;;13.90;99.90;;;;;;4171481;28;20144;-72
2021/09/29 04:05:43;;;;;;;7.97;4.28;;;13.80;99.90;;;;;;4173720;28;20037;-72
2021/09/29 04:07:44;;;;;;;12.90;5.47;;;13.80;99.90;;;;;;4170957;28;20036;-73
2021/09/29 04:09:46;;;;;;;12.25;5.10;;;13.70;99.90;;;;;;4169603;28;20036;-73
2021/09/29 04:11:47;;;;;;;11.50;4.30;;;13.70;99.90;;;;;;4171791;28;20088;-72
2021/09/29 04:13:47;;;;;;;9.63;4.65;;;13.60;99.90;;;;;;4170820;28;20635;-73
2021/09/29 04:15:49;;;;;;;13.02;4.40;;;13.70;99.90;;;;;;4166780;28;20087;-73
2021/09/29 04:17:49;;;;;;;11.90;4.95;;;13.70;99.90;;;;;;4173063;28;20082;-72
2021/09/29 04:19:50;;;;;;;10.05;4.30;;;13.60;99.90;;;;;;4170804;28;20045;-72
2021/09/29 04:21:51;;;;;;;10.95;3.70;;;13.60;99.90;;;;;;4170559;28;20029;-73
2021/09/29 04:23:51;;;;;;;7.20;3.25;;;13.50;99.90;;;;;;4172349;28;20130;-73
2021/09/29 04:25:52;;;;;;;9.05;3.88;;;13.50;99.90;;;;;;4171918;28;20469;-72
2021/09/29 04:27:53;;;;;;;8.48;3.58;;;13.50;99.90;;;;;;4170363;28;20520;-72
2021/09/29 04:29:54;;;;;;;11.48;3.85;;;13.50;99.90;;;;;;4169965;28;20044;-73
2021/09/29 04:31:55;;;;;;;8.05;2.85;;;13.50;99.90;;;;;;4173151;28;20044;-72
2021/09/29 04:33:55;;;;;;;9.27;3.53;;;13.40;99.90;;;;;;4168568;28;20068;-72
2021/09/29 04:35:56;;;;;;;7.10;3.20;;;13.40;99.90;;;;;;4170275;28;20056;-72
2021/09/29 04:37:58;;;;;;;8.40;3.22;;;13.40;99.90;;;;;;4172029;28;20033;-72
2021/09/29 04:39:58;;;;;;;10.82;3.33;;;13.50;99.90;;;;;;4168195;28;20036;-72
2021/09/29 04:41:59;;;;;;;7.68;2.92;;;13.40;99.90;;;;;;4173044;28;20033;-72
2021/09/29 04:44:00;;;;;;;9.65;2.92;;;13.40;99.90;;;;;;4173191;28;20420;-72
2021/09/29 04:46:00;;;;;;;7.50;2.70;;;13.30;99.90;;;;;;4169918;28;20049;-73
2021/09/29 04:48:05;;;;;;;8.15;2.78;;;13.30;99.90;;;;;;4170796;28;20067;-71
2021/09/29 04:50:06;;;;;;;6.60;2.75;;;13.30;99.90;;;;;;4171762;28;20037;-72
2021/09/29 04:52:07;;;;;;;6.10;3.03;;;13.40;99.90;;;;;;4171602;28;20616;-72
2021/09/29 04:54:08;;;;;;;7.13;2.83;;;13.30;99.90;;;;;;4173406;28;20041;-74
2021/09/29 04:56:09;;;;;;;5.10;2.85;;;13.30;99.90;;;;;;4169147;28;20041;-74
2021/09/29 04:58:10;;;;;;;7.88;2.83;;;13.30;99.90;;;;;;4172350;28;20485;-74
2021/09/29 05:00:11;;;;;;;9.65;3.33;;;13.40;99.90;;;;;;4172816;28;20100;-74
2021/09/29 05:02:14;;;;;;;6.82;2.78;;;13.30;99.90;;;;;;4178728;28;20052;-74
2021/09/29 05:04:15;;;;;;;4.97;2.25;;;13.40;99.90;;;;;;4172646;28;20056;-74
2021/09/29 05:06:17;;;;;;;9.38;2.95;;;13.40;99.90;;;;;;4165125;28;20094;-75
2021/09/29 05:08:24;;;;;;;6.47;2.70;;;13.40;99.90;;;;;;4166854;28;20041;-75
2021/09/29 05:10:29;;;;;;;9.38;3.17;;;13.40;99.90;;;;;;4165661;28;20037;-74
2021/09/29 05:12:31;;;;;;;7.15;3.20;;;13.40;99.90;;;;;;4167090;28;20037;-75
2021/09/29 05:14:32;;;;;;;6.93;2.95;;;13.40;99.90;;;;;;4167705;28;21275;-74
2021/09/29 05:16:33;;;;;;;7.60;2.53;;;13.40;99.90;;;;;;4165387;28;20045;-75
2021/09/29 05:18:33;;;;;;;5.78;2.70;;;13.40;99.90;;;;;;4168540;28;20439;-74
2021/09/29 05:20:35;;;;;;;7.95;2.58;;;13.40;99.90;;;;;;4149180;28;20033;-75
2021/09/29 05:22:36;;;;;;;8.48;3.20;;;13.50;99.90;;;;;;4156795;28;20130;-75
2021/09/29 05:24:37;;;;;;;6.47;2.72;;;13.50;99.90;;;;;;4162710;28;20036;-75
2021/09/29 05:26:37;;;;;;;6.80;3.08;;;13.50;99.90;;;;;;4167976;28;20045;-75
2021/09/29 05:28:41;;;;;;;6.75;2.65;;;13.50;99.90;;;;;;4167805;28;20040;-74
2021/09/29 05:30:42;;;;;;;12.85;3.45;;;13.60;99.90;;;;;;4167692;28;20037;-75
2021/09/29 05:32:42;;;;;;;8.85;3.08;;;13.60;99.90;;;;;;4166823;28;20037;-74
2021/09/29 05:34:43;;;;;;;6.05;2.97;;;13.60;99.90;;;;;;4165740;28;20037;-75
2021/09/29 05:36:45;;;;;;;4.97;2.50;;;13.60;99.90;;;;;;4164594;28;20132;-75
2021/09/29 05:38:46;;;;;;;5.07;2.55;;;13.60;99.90;;;;;;4165452;28;20025;-75
2021/09/29 05:40:46;;;;;;;7.28;3.22;;;13.60;99.90;;;;;;4164448;28;20773;-75
2021/09/29 05:42:47;;;;;;;6.15;3.20;;;13.60;99.90;;;;;;4165751;28;20029;-75
2021/09/29 05:44:48;;;;;;;10.27;3.38;;;13.70;99.90;;;;;;4163835;28;20492;-75
2021/09/29 05:46:49;;;;;;;7.30;2.95;;;13.60;99.90;;;;;;4163889;28;20051;-76
2021/09/29 05:48:51;;;;;;;8.45;3.05;;;13.70;99.90;;;;;;4164516;28;20025;-75
2021/09/29 05:50:52;;;;;;;6.68;3.35;;;13.60;99.90;;;;;;4146166;28;20393;-75
2021/09/29 05:52:52;;;;;;;5.20;2.92;;;13.60;99.90;;;;;;4164211;28;20029;-74
2021/09/29 05:54:53;;;;;;;8.15;3.35;;;13.70;99.90;;;;;;4163564;28;20033;-75
2021/09/29 05:56:53;;;;;;;6.15;3.00;;;13.70;99.90;;;;;;4162410;28;20041;-75
2021/09/29 05:58:54;;;;;;;11.23;3.50;;;13.70;99.90;;;;;;4163034;28;20523;-75
2021/09/29 06:00:54;;;;;;;8.20;3.33;;;13.70;99.90;;;;;;4164264;28;20032;-75
2021/09/29 06:02:55;;;;;;;8.80;3.92;;;13.70;99.90;;;;;;4165277;28;20044;-75
2021/09/29 06:04:56;;;;;;;7.47;3.80;;;13.70;99.90;;;;;;4163987;28;20479;-75
2021/09/29 06:06:58;;;;;;;10.77;3.63;;;13.70;99.90;;;;;;4165080;28;20094;-75
2021/09/29 06:08:59;;;;;;;;;;;13.70;99.90;;;;;;4163025;28;20045;-75
2021/09/29 06:11:00;;;;;;;12.15;4.15;;;13.70;99.90;;;;;;4164820;28;20411;-76
2021/09/29 06:13:00;;;;;;;8.93;3.45;;;13.60;99.90;;;;;;4165616;28;20041;-75
2021/09/29 06:15:01;;;;;;;8.77;4.07;;;13.70;99.90;;;;;;4162505;28;20096;-76
2021/09/29 06:17:12;;;;;;;9.32;4.63;;;13.70;99.90;;;;;;4149702;28;20051;-76
2021/09/29 06:19:17;;;;;;;10.13;3.60;;;13.60;99.90;;;;;;4147372;28;20124;-76
2021/09/29 06:21:18;;;;;;;8.80;4.03;;;13.60;99.90;;;;;;4147688;28;20454;-77
2021/09/29 06:23:20;;;;;;;10.18;3.92;;;13.60;99.90;;;;;;4147952;28;20064;-76
2021/09/29 06:25:21;;;;;;;9.88;3.97;;;13.60;99.90;;;;;;4146127;28;20144;-77
2021/09/29 06:27:22;;;;;;;7.65;3.30;;;13.60;99.90;;;;;;4146936;28;20302;-76
2021/09/29 06:29:23;;;;;;;8.73;3.13;;;13.50;99.90;;;;;;4147495;28;20045;-76
2021/09/29 06:31:24;;;;;;;10.63;2.95;;;13.50;99.90;;;;;;4146789;28;20049;-76
2021/09/29 06:33:24;;;;;;;8.13;2.63;;;13.50;99.90;;;;;;4148863;28;20125;-77
2021/09/29 06:35:26;;;;;;;5.05;2.58;;;13.50;99.90;;;;;;4148158;28;20148;-76
2021/09/29 06:37:26;;;;;;;7.78;3.28;;;13.60;99.90;;;;;;4147245;28;20037;-76
2021/09/29 06:39:27;;;;;;;9.07;2.70;;;13.50;99.90;;;;;;4150831;28;20461;-76
2021/09/29 06:41:28;;;;;;;5.03;2.47;;;13.60;99.90;;;;;;4149690;28;20056;-76
2021/09/29 06:43:28;;;;;;;6.78;2.80;;;13.60;99.90;;;;;;4149533;28;20041;-76
2021/09/29 06:45:31;;;;;;;10.20;3.05;;;13.60;99.90;;;;;;4148779;28;20037;-76
2021/09/29 06:47:31;;;;;;;6.32;2.63;;;13.60;99.90;;;;;;4149249;28;20041;-75
2021/09/29 06:49:32;;;;;;;5.30;2.80;;;13.60;99.90;;;;;;4150955;28;20038;-76
2021/09/29 06:51:33;;;;;;;4.88;2.50;;;13.60;99.90;;;;;;4150350;28;20059;-75
2021/09/29 06:53:34;;;;;;;9.48;3.10;;;13.50;99.90;;;;;;4148144;28;20760;-75
2021/09/29 06:55:34;;;;;;;9.05;3.20;;;13.60;99.90;;;;;;4151471;28;20041;-75
2021/09/29 06:57:35;;;;;;;7.63;3.10;;;13.50;99.90;;;;;;4151211;28;20038;-75
2021/09/29 06:59:36;;;;;;;7.70;2.92;;;13.50;99.90;;;;;;4154477;28;20091;-75
2021/09/29 07:01:36;;;;;;;6.75;3.20;;;13.50;99.90;;;;;;4154730;28;20652;-75
2021/09/29 07:03:37;;;;;;;6.72;2.97;;;13.50;99.90;;;;;;4154685;28;20524;-75
2021/09/29 07:05:38;;;;;;;6.00;2.88;;;13.50;99.90;;;;;;4145785;28;20576;-75
2021/09/29 07:07:39;;;;;;;4.97;2.85;;;13.50;99.90;;;;;;4153030;28;20510;-75
2021/09/29 07:09:40;;;;;;;6.03;3.08;;;13.60;99.90;;;;;;4145768;28;20055;-75
2021/09/29 07:11:40;;;;;;;6.13;3.25;;;13.60;99.90;;;;;;4154916;28;20671;-75
2021/09/29 07:13:41;;;;;;;6.93;3.03;;;13.60;99.90;;;;;;4152221;28;20128;-75
2021/09/29 07:15:42;;;;;;;6.10;3.63;;;13.70;99.90;;;;;;4154503;28;20041;-74
2021/09/29 07:17:44;;;;;;;10.25;3.00;;;13.70;99.90;;;;;;4154226;28;20037;-74
2021/09/29 07:19:44;;;;;;;7.13;3.17;;;13.60;99.90;;;;;;4154811;28;20148;-75
2021/09/29 07:21:45;;;;;;;10.90;3.70;;;13.60;99.90;;;;;;4153397;28;20505;-75
2021/09/29 07:23:47;;;;;;;6.97;3.20;;;13.60;99.90;;;;;;4152866;28;20444;-75
2021/09/29 07:25:48;;;;;;;4.07;2.97;;;13.50;99.90;;;;;;4154600;28;20379;-75
2021/09/29 07:27:49;;;;;;;7.35;3.70;;;13.50;99.90;;;;;;4150454;28;20048;-75
2021/09/29 07:29:50;;;;;;;11.32;3.38;;;13.60;99.90;;;;;;4147633;28;20450;-75
2021/09/29 07:31:51;;;;;;;7.53;3.10;;;13.60;99.90;;;;;;4153442;28;20032;-75
2021/09/29 07:33:52;;;;;;;4.85;2.85;;;13.60;99.90;;;;;;4152346;28;20053;-75
2021/09/29 07:35:55;;;;;;;7.47;3.10;;;13.60;99.90;;;;;;4165506;28;20025;-75
2021/09/29 07:37:56;;;;;;;5.72;2.60;;;13.60;99.90;;;;;;4171723;28;20067;-75
2021/09/29 07:39:57;;;;;;;4.68;2.78;;;13.70;99.90;;;;;;4172982;28;20033;-75
2021/09/29 07:41:57;;;;;;;6.07;3.38;;;13.70;99.90;;;;;;4171921;28;20025;-75
2021/09/29 07:43:58;;;;;;;9.40;3.25;;;13.80;99.90;;;;;;4170346;28;20479;-75
2021/09/29 07:45:59;;;;;;;9.23;3.53;;;13.80;99.90;;;;;;4172907;28;20033;-75
2021/09/29 07:47:59;;;;;;;7.75;3.05;;;13.80;99.90;;;;;;4170508;28;20021;-75
2021/09/29 07:50:01;;;;;;;6.22;3.38;;;13.80;99.90;;;;;;4167790;28;20388;-75
2021/09/29 07:52:02;;;;;;;7.78;3.10;;;13.80;99.90;;;;;;4169493;28;20029;-75
2021/09/29 07:54:03;;;;;;;8.35;3.47;;;13.90;99.90;;;;;;4168687;28;20037;-75
2021/09/29 07:56:04;;;;;;;7.22;3.40;;;13.90;99.90;;;;;;4170670;28;20045;-75
2021/09/29 07:58:04;;;;;;;9.07;3.33;;;14.00;99.90;;;;;;4168856;28;20052;-75
2021/09/29 08:00:07;;;;;;;6.22;3.50;;;13.90;99.90;;;;;;4165984;28;20037;-75
2021/09/29 08:02:08;;;;;;;8.65;3.42;;;14.00;99.90;;;;;;4169469;28;21148;-75
2021/09/29 08:04:09;;;;;;;6.50;3.38;;;14.00;99.90;;;;;;4170816;28;20040;-75
2021/09/29 08:06:09;;;;;;;8.88;3.35;;;14.00;99.90;;;;;;4168907;28;20041;-75
2021/09/29 08:08:10;;;;;;;5.88;3.13;;;14.00;99.90;;;;;;4170241;28;20047;-75
2021/09/29 08:10:11;;;;;;;9.73;3.40;;;14.00;99.90;;;;;;4168358;28;20088;-75
2021/09/29 08:12:11;;;;;;;9.38;3.35;;;14.00;99.90;;;;;;4168188;28;20048;-75
2021/09/29 08:14:12;;;;;;;7.35;3.35;;;14.00;99.90;;;;;;4168505;28;20041;-75
2021/09/29 08:16:13;;;;;;;8.90;3.50;;;14.00;99.90;;;;;;4168490;28;20160;-74
2021/09/29 08:18:16;;;;;;;8.05;3.50;;;14.10;99.90;;;;;;4170314;28;20048;-75
2021/09/29 08:20:20;;;;;;;7.88;2.97;;;14.10;99.90;;;;;;4170462;28;20037;-76
2021/09/29 08:22:21;;;;;;;6.82;3.00;;;14.00;99.90;;;;;;4171445;28;20062;-76
2021/09/29 08:24:33;;;;;;;5.45;3.03;;;14.00;99.90;;;;;;4168581;28;20033;-76
2021/09/29 08:26:43;;;;;;;6.32;2.97;;;14.00;99.90;;;;;;4168439;28;20044;-77
2021/09/29 08:28:54;;;;;;;5.53;2.40;;;13.90;99.90;;;;;;4167836;28;20033;-76
2021/09/29 08:31:07;;;;;;;6.63;2.88;;;14.00;99.90;;;;;;4169081;28;20052;-76
2021/09/29 08:35:27;;;;;;;7.00;2.67;;;14.00;99.90;;;;;;4168712;28;20036;-76
2021/09/29 08:37:38;;;;;;;6.53;2.83;;;13.90;99.90;;;;;;4168474;28;20093;-76
2021/09/29 08:42:02;;;;;;;6.22;2.53;;;13.90;99.90;;;;;;4171430;28;20060;-76
2021/09/29 08:44:11;;;;;;;4.47;2.05;;;13.90;99.90;;;;;;4151412;28;20056;-76
2021/09/29 08:46:22;;;;;;;2.75;1.80;;;13.90;99.90;;;;;;4167994;28;20040;-76
2021/09/29 08:50:34;;;;;;;7.53;2.57;;;14.00;99.90;;;;;;4169895;28;20025;-75
2021/09/29 08:53:13;;;;;;;4.43;1.80;;;14.00;99.90;;;;;;4169250;28;20091;-75
2021/09/29 09:17:46;;;;;;;3.70;1.35;;;14.20;99.90;;;;;;4169757;28;20089;-74
2021/09/29 09:19:46;;;;;;;2.88;1.13;;;14.30;99.90;;;;;;4169412;28;20033;-75
2021/09/29 09:22:05;;;;;;;3.20;1.30;;;14.30;99.90;;;;;;4167799;28;20041;-74
2021/09/29 09:24:30;;;;;;;4.30;1.42;;;14.30;99.90;;;;;;4168627;28;20041;-75
2021/09/29 09:26:31;;;;;;;4.18;1.10;;;14.30;99.90;;;;;;4168495;28;20058;-74
2021/09/29 09:28:31;;;;;;;3.25;1.00;;;14.30;99.90;;;;;;4168594;28;20116;-75
2021/09/29 09:30:35;;;;;;;4.90;1.40;;;14.30;99.90;;;;;;4166816;28;20108;-73
2021/09/29 09:32:46;;;;;;;4.93;0.98;;;14.30;99.90;;;;;;4166013;28;20040;-73
2021/09/29 09:34:47;;;;;;;2.70;1.10;;;14.30;99.90;;;;;;4163902;28;20029;-73
2021/09/29 09:36:50;;;;;;;1.35;1.00;;;14.30;99.90;;;;;;4166241;28;20091;-73
2021/09/29 09:38:51;;;;;;;;;;;14.20;99.90;;;;;;4165428;28;20041;-74
2021/09/29 09:40:58;;;;;;;1.60;1.00;;;14.20;99.90;;;;;;4164372;28;20412;-74
2021/09/29 09:42:58;;;;;;;2.45;0.80;;;14.20;99.90;;;;;;4165156;28;20040;-73
2021/09/29 09:44:59;;;;;;;2.70;1.13;;;14.20;99.90;;;;;;4165014;28;20512;-74
2021/09/29 09:47:06;;;;;;;3.20;1.40;;;14.20;99.90;;;;;;4164627;28;20394;-73
2021/09/29 09:49:09;;;;;;;2.80;1.08;;;14.20;99.90;;;;;;4145302;28;20066;-74
2021/09/29 09:51:15;;;;;;;1.20;0.70;;;14.10;99.90;;;;;;4165778;28;20448;-74
2021/09/29 09:53:16;;;;;;;2.70;1.10;;;14.10;99.90;;;;;;4168624;28;20033;-74
2021/09/29 09:55:23;;;;;;;1.15;0.65;;;14.00;99.90;;;;;;4168513;28;20055;-74
2021/09/29 09:57:23;;;;;;;1.17;0.88;;;14.10;99.90;;;;;;4172180;28;20059;-74
2021/09/29 09:59:30;;;;;;;2.67;0.90;;;14.10;99.90;;;;;;4165412;28;20028;-74
2021/09/29 10:01:31;;;;;;;2.38;1.08;;;14.00;99.90;;;;;;4163593;28;20103;-74
2021/09/29 10:03:31;;;;;;;2.30;1.08;;;14.00;99.90;;;;;;4169533;28;20029;-74
2021/09/29 10:05:32;;;;;;;2.70;0.82;;;13.90;99.90;;;;;;4168911;28;20024;-74
2021/09/29 10:07:33;;;;;;;3.08;1.10;;;13.90;99.90;;;;;;4167790;28;20156;-74
2021/09/29 10:09:41;;;;;;;1.52;0.70;;;13.90;99.90;;;;;;4167937;28;20028;-74
2021/09/29 10:12:18;;;;;;;2.55;0.88;;;14.00;99.90;;;;;;4167227;28;20040;-74
2021/09/29 10:14:33;;;;;;;2.15;1.00;;;13.90;99.90;;;;;;4166873;28;20128;-73
2021/09/29 10:26:38;;;;;;;2.00;1.00;;;14.00;99.90;;;;;;4165080;28;20041;-74
2021/09/29 10:28:41;;;;;;;2.40;1.02;;;13.90;99.90;;;;;;4169650;28;20052;-74
2021/09/29 10:30:51;;;;;;;4.03;1.08;;;13.90;99.90;;;;;;4168919;28;20037;-74
2021/09/29 10:32:58;;;;;;;1.77;0.90;;;13.90;99.90;;;;;;4170722;28;20133;-74
2021/09/29 10:44:06;;;;;;;4.38;1.05;;;14.00;99.90;;;;;;4169493;28;20175;-73
2021/09/29 10:47:08;;;;;;;1.98;0.75;;;14.00;99.90;;;;;;4168918;28;20101;-73
2021/09/29 10:52:58;;;;;;;3.25;1.15;;;14.00;99.90;;;;;;4168247;28;20509;-73
2021/09/29 11:07:05;;;;;;;1.90;1.10;;;14.10;99.90;;;;;;4166464;28;20063;-73
2021/09/29 11:09:42;;;;;;;1.27;0.80;;;14.10;99.90;;;;;;4165992;28;20329;-73
2021/09/29 11:30:24;;;;;;;2.65;1.50;;;14.20;99.90;;;;;;4171134;28;20083;-73
2021/09/29 11:32:34;;;;;;;2.15;1.55;;;14.30;99.90;;;;;;4171047;28;20033;-74
2021/09/29 11:34:40;;;;;;;2.40;1.30;;;14.30;99.90;;;;;;4169492;28;20036;-74
2021/09/29 12:12:00;;;;;;;1.58;1.20;;;14.80;99.90;;;;;;4173073;28;20044;-73
2021/09/29 12:14:11;;;;;;;2.58;1.20;;;14.80;99.90;;;;;;4173418;28;20041;-73
2021/09/29 12:16:23;;;;;;;2.35;1.30;;;14.80;99.90;;;;;;4170739;28;20049;-73
2021/09/29 12:18:24;;;;;;;1.55;1.10;;;14.80;99.90;;;;;;4170142;28;20041;-73
2021/09/29 12:20:28;;;;;;;1.27;0.82;;;14.80;99.90;;;;;;4170849;28;20033;-73
2021/09/29 12:22:30;;;;;;;3.58;1.20;;;14.90;99.90;;;;;;4174843;28;20036;-73
2021/09/29 12:24:35;;;;;;;2.13;0.80;;;14.80;99.90;;;;;;4170129;28;20051;-73
2021/09/29 12:26:47;;;;;;;2.67;1.10;;;14.80;99.90;;;;;;4170720;28;20271;-73
2021/09/29 12:33:42;;;;;;;2.83;1.35;;;15.00;99.90;;;;;;4169354;28;20049;-73
2021/09/29 12:35:51;;;;;;;1.67;1.08;;;15.10;99.90;;;;;;4167377;28;20064;-73
2021/09/29 12:37:54;;;;;;;3.25;1.38;;;15.10;99.90;;;;;;4168965;28;24168;-73
2021/09/29 12:39:56;;;;;;;3.80;1.42;;;15.10;99.90;;;;;;4168001;28;20036;-74
2021/09/29 12:41:57;;;;;;;4.00;1.13;;;15.10;99.90;;;;;;4167570;28;20029;-76